Time;durP1;ratioP1;P1;durP2;ratioP2;P2;SDS_P1;SDS_P2;PMS_P1;PMS_P2;Temp;Humidity;BMP_temperature;BMP_pressure;BME280_temperature;BME280_humidity;BME280_pressure;Samples;Min_cycle;Max_cycle;Signal;HPM_P1;HPM_P2
2022/01/29 00:00:16;;;;;;;26.57;20.50;;;;;;;;;;5121304;28;20285;-82
2022/01/29 00:02:45;;;;;;;26.63;20.40;;;;;;;;;;5126269;28;20282;-81
2022/01/29 00:05:12;;;;;;;26.33;19.50;;;;;;;;;;5132092;27;20280;-82
2022/01/29 00:07:41;;;;;;;27.57;19.97;;;;;;;;;;5134881;27;20229;-81
2022/01/29 00:10:09;;;;;;;26.40;20.37;;;;;;;;;;5136151;27;20215;-81
2022/01/29 00:12:36;;;;;;;27.43;21.00;;;;;;;;;;5135663;27;20196;-81
2022/01/29 00:15:04;;;;;;;27.27;22.17;;;;;;;;;;5136038;27;20287;-82
2022/01/29 00:17:31;;;;;;;30.03;23.07;;;;;;;;;;5128713;27;20289;-82
2022/01/29 00:20:00;;;;;;;30.43;22.90;;;;;;;;;;5115655;27;20279;-82
2022/01/29 00:22:28;;;;;;;27.63;21.57;;;;;;;;;;5115056;28;20257;-81
2022/01/29 00:24:56;;;;;;;24.97;20.13;;;;;;;;;;5115059;28;20236;-81
2022/01/29 00:27:26;;;;;;;25.10;20.17;;;;;;;;;;5132045;27;20208;-82
2022/01/29 00:29:54;;;;;;;24.70;19.70;;;;;;;;;;5118015;27;20567;-82
2022/01/29 00:32:22;;;;;;;24.17;19.40;;;;;;;;;;5115768;27;20626;-82
2022/01/29 00:34:49;;;;;;;25.20;19.57;;;;;;;;;;5135291;27;20599;-81
2022/01/29 00:37:17;;;;;;;23.30;18.50;;;;;;;;;;5133246;27;20228;-81
2022/01/29 00:39:45;;;;;;;23.13;16.63;;;;;;;;;;5133806;27;20252;-81
2022/01/29 00:42:13;;;;;;;21.97;16.43;;;;;;;;;;5134647;27;20252;-82
2022/01/29 00:44:40;;;;;;;17.37;15.47;;;;;;;;;;5116315;27;20563;-81
2022/01/29 00:47:07;;;;;;;20.53;15.77;;;;;;;;;;5121652;27;20719;-81
2022/01/29 00:49:35;;;;;;;20.30;16.10;;;;;;;;;;5135181;27;20279;-82
2022/01/29 00:52:02;;;;;;;21.93;15.90;;;;;;;;;;5134702;27;20604;-82
2022/01/29 00:54:31;;;;;;;20.57;15.70;;;;;;;;;;5124940;27;20252;-82
2022/01/29 00:56:58;;;;;;;20.73;15.93;;;;;;;;;;5134089;27;20232;-82
2022/01/29 00:59:25;;;;;;;19.47;15.10;;;;;;;;;;5135270;27;20296;-82
2022/01/29 01:01:53;;;;;;;20.67;15.20;;;;;;;;;;5125583;27;20283;-82
2022/01/29 01:04:20;;;;;;;16.53;14.70;;;;;;;;;;5130404;27;20231;-81
2022/01/29 01:06:47;;;;;;;17.80;14.90;;;;;;;;;;5134041;27;20667;-82
2022/01/29 01:09:14;;;;;;;17.43;13.90;;;;;;;;;;5126674;27;20765;-82
2022/01/29 01:11:43;;;;;;;15.33;13.63;;;;;;;;;;5115686;27;20240;-82
2022/01/29 01:14:10;;;;;;;15.67;13.83;;;;;;;;;;5113501;28;20224;-82
2022/01/29 01:16:38;;;;;;;17.03;13.13;;;;;;;;;;5121482;27;20251;-82
2022/01/29 01:19:05;;;;;;;16.67;13.03;;;;;;;;;;5133342;27;20289;-82
2022/01/29 01:21:32;;;;;;;16.63;12.97;;;;;;;;;;5124401;27;20227;-82
2022/01/29 01:23:59;;;;;;;18.00;13.63;;;;;;;;;;5134125;27;20292;-82
2022/01/29 01:26:26;;;;;;;19.50;14.90;;;;;;;;;;5125930;27;20279;-82
2022/01/29 01:28:55;;;;;;;19.87;14.70;;;;;;;;;;5126484;27;20232;-81
2022/01/29 01:31:22;;;;;;;19.63;14.57;;;;;;;;;;5113782;28;20285;-81
2022/01/29 01:33:50;;;;;;;19.07;14.47;;;;;;;;;;5113562;28;20714;-82
2022/01/29 01:36:22;;;;;;;18.80;13.97;;;;;;;;;;5117632;27;20590;-82
2022/01/29 01:38:53;;;;;;;19.20;14.23;;;;;;;;;;5134688;27;20686;-82
2022/01/29 01:41:24;;;;;;;16.87;13.00;;;;;;;;;;5134197;27;20236;-82
2022/01/29 01:43:52;;;;;;;17.03;12.43;;;;;;;;;;5104066;28;20296;-82
2022/01/29 01:46:20;;;;;;;15.63;12.17;;;;;;;;;;5114026;28;20233;-82
2022/01/29 01:48:48;;;;;;;16.10;11.77;;;;;;;;;;5114056;28;20229;-81
2022/01/29 01:51:15;;;;;;;14.67;11.83;;;;;;;;;;5113698;28;20254;-82
2022/01/29 01:53:43;;;;;;;18.30;10.80;;;;;;;;;;5113669;28;20289;-82
2022/01/29 01:56:10;;;;;;;14.17;11.00;;;;;;;;;;5108833;28;20254;-82
2022/01/29 01:58:37;;;;;;;14.07;10.00;;;;;;;;;;5113587;28;20194;-82
2022/01/29 02:01:04;;;;;;;13.93;9.73;;;;;;;;;;5112480;28;20655;-82
2022/01/29 02:03:34;;;;;;;12.43;9.30;;;;;;;;;;5102095;28;20288;-82
2022/01/29 02:06:01;;;;;;;15.47;9.30;;;;;;;;;;5093600;28;20219;-81
2022/01/29 02:08:28;;;;;;;11.60;9.27;;;;;;;;;;5094555;28;20204;-82
2022/01/29 02:11:02;;;;;;;12.50;8.50;;;;;;;;;;5113346;28;20288;-82
2022/01/29 02:13:29;;;;;;;13.60;9.03;;;;;;;;;;5113545;28;20189;-82
2022/01/29 02:15:57;;;;;;;12.70;8.50;;;;;;;;;;5112779;28;20572;-82
2022/01/29 02:18:25;;;;;;;16.10;8.37;;;;;;;;;;5092546;28;20208;-82
2022/01/29 02:20:54;;;;;;;14.30;8.90;;;;;;;;;;5105358;28;20235;-82
2022/01/29 02:23:22;;;;;;;10.07;8.23;;;;;;;;;;5112894;28;20283;-82
2022/01/29 02:25:50;;;;;;;13.83;8.70;;;;;;;;;;5112865;28;20229;-82
2022/01/29 02:28:18;;;;;;;10.43;8.30;;;;;;;;;;5112936;28;20196;-82
2022/01/29 02:30:47;;;;;;;15.47;8.67;;;;;;;;;;5101461;28;20717;-82
2022/01/29 02:33:15;;;;;;;10.23;8.07;;;;;;;;;;5092990;28;20236;-82
2022/01/29 02:35:43;;;;;;;12.63;8.90;;;;;;;;;;5092466;28;20304;-82
2022/01/29 02:38:11;;;;;;;12.93;8.73;;;;;;;;;;5092858;28;20703;-83
2022/01/29 02:40:46;;;;;;;12.17;8.73;;;;;;;;;;5112849;28;20224;-83
2022/01/29 02:43:14;;;;;;;11.43;8.30;;;;;;;;;;5111663;28;20244;-82
2022/01/29 02:45:42;;;;;;;13.53;8.63;;;;;;;;;;5111727;28;20277;-82
2022/01/29 02:48:10;;;;;;;12.23;8.50;;;;;;;;;;5104910;28;20193;-83
2022/01/29 02:50:37;;;;;;;11.30;8.30;;;;;;;;;;5102565;28;20281;-83
2022/01/29 02:53:05;;;;;;;11.63;8.37;;;;;;;;;;5091633;28;20247;-82
2022/01/29 02:55:32;;;;;;;11.73;8.60;;;;;;;;;;5105946;28;20264;-83
2022/01/29 02:58:01;;;;;;;10.20;8.27;;;;;;;;;;5110872;28;20712;-82
2022/01/29 03:00:30;;;;;;;11.13;8.50;;;;;;;;;;5089355;28;20201;-83
2022/01/29 03:02:57;;;;;;;11.97;8.20;;;;;;;;;;5109055;28;20259;-82
2022/01/29 03:05:24;;;;;;;11.50;8.00;;;;;;;;;;5092705;28;20287;-82
2022/01/29 03:07:52;;;;;;;11.27;8.43;;;;;;;;;;5108663;28;20271;-83
2022/01/29 03:10:22;;;;;;;13.47;8.27;;;;;;;;;;5099394;28;20232;-83
2022/01/29 03:12:49;;;;;;;11.83;8.17;;;;;;;;;;5109126;28;20227;-83
2022/01/29 03:15:18;;;;;;;11.50;8.30;;;;;;;;;;5111728;28;20292;-82
2022/01/29 03:17:45;;;;;;;11.50;9.03;;;;;;;;;;5110264;28;20329;-82
2022/01/29 03:20:13;;;;;;;11.83;8.40;;;;;;;;;;5091408;28;20241;-82
2022/01/29 03:22:40;;;;;;;11.57;8.53;;;;;;;;;;5091487;28;20830;-83
2022/01/29 03:25:07;;;;;;;14.40;8.80;;;;;;;;;;5091243;28;20209;-82
2022/01/29 03:27:35;;;;;;;14.20;8.97;;;;;;;;;;5089885;28;20327;-82
2022/01/29 03:30:02;;;;;;;13.90;9.23;;;;;;;;;;5085109;28;20202;-82
2022/01/29 03:32:31;;;;;;;13.00;9.00;;;;;;;;;;5071204;28;20557;-83
2022/01/29 03:34:58;;;;;;;15.60;9.30;;;;;;;;;;5100065;28;20283;-83
2022/01/29 03:37:25;;;;;;;13.47;9.70;;;;;;;;;;5111510;28;20315;-83
2022/01/29 03:39:57;;;;;;;17.33;10.23;;;;;;;;;;5110264;28;20236;-82
2022/01/29 03:42:25;;;;;;;14.30;10.00;;;;;;;;;;5115312;28;20225;-82
2022/01/29 03:44:52;;;;;;;15.97;11.17;;;;;;;;;;5115396;28;20249;-82
2022/01/29 03:47:19;;;;;;;15.43;9.10;;;;;;;;;;5116079;28;20284;-82
2022/01/29 03:49:48;;;;;;;15.10;9.97;;;;;;;;;;5115333;28;20221;-82
2022/01/29 03:52:15;;;;;;;14.53;10.60;;;;;;;;;;5111416;28;20285;-82
2022/01/29 03:54:43;;;;;;;15.67;10.10;;;;;;;;;;5128315;27;20326;-82
2022/01/29 03:57:10;;;;;;;12.50;9.43;;;;;;;;;;5133743;27;20219;-82
2022/01/29 03:59:38;;;;;;;16.40;9.57;;;;;;;;;;5133637;27;20652;-82
2022/01/29 04:02:05;;;;;;;12.57;8.90;;;;;;;;;;5136424;27;20280;-83
2022/01/29 04:04:32;;;;;;;13.13;8.93;;;;;;;;;;5135978;27;20227;-83
2022/01/29 04:07:06;;;;;;;11.53;8.43;;;;;;;;;;5135965;27;20284;-82
2022/01/29 04:09:34;;;;;;;14.57;9.20;;;;;;;;;;5129020;27;20211;-83
2022/01/29 04:12:01;;;;;;;13.03;9.40;;;;;;;;;;5094934;28;20263;-82
2022/01/29 04:14:33;;;;;;;14.20;9.60;;;;;;;;;;5133062;27;20249;-83
2022/01/29 04:17:00;;;;;;;13.37;9.63;;;;;;;;;;5135754;27;20228;-82
2022/01/29 04:19:28;;;;;;;14.80;9.53;;;;;;;;;;5128942;27;20923;-82
2022/01/29 04:21:55;;;;;;;12.43;8.47;;;;;;;;;;5115124;28;20251;-83
2022/01/29 04:24:23;;;;;;;13.63;9.50;;;;;;;;;;5115464;28;20228;-82
2022/01/29 04:26:51;;;;;;;15.87;9.43;;;;;;;;;;5131994;27;20283;-82
2022/01/29 04:29:18;;;;;;;12.43;8.83;;;;;;;;;;5134897;27;20279;-82
2022/01/29 04:31:58;;;;;;;11.77;8.80;;;;;;;;;;5135732;27;20204;-82
2022/01/29 04:34:26;;;;;;;12.80;8.80;;;;;;;;;;5135617;27;20272;-82
2022/01/29 04:36:53;;;;;;;18.87;9.80;;;;;;;;;;5128625;27;20212;-82
2022/01/29 04:39:20;;;;;;;12.70;9.13;;;;;;;;;;5120024;27;20673;-82
2022/01/29 04:41:49;;;;;;;15.57;9.27;;;;;;;;;;5133088;27;20287;-82
2022/01/29 04:44:17;;;;;;;14.47;9.43;;;;;;;;;;5129390;27;20284;-83
2022/01/29 04:46:44;;;;;;;12.20;8.90;;;;;;;;;;5135302;27;20197;-82
2022/01/29 04:49:12;;;;;;;13.20;8.87;;;;;;;;;;5135047;27;20374;-82
2022/01/29 04:51:39;;;;;;;14.23;9.17;;;;;;;;;;5134779;27;20224;-83
2022/01/29 04:54:07;;;;;;;14.23;9.53;;;;;;;;;;5133844;27;20316;-82
2022/01/29 04:56:34;;;;;;;13.90;9.53;;;;;;;;;;5119031;27;20309;-83
2022/01/29 04:59:03;;;;;;;16.77;9.57;;;;;;;;;;5122745;27;20197;-83
2022/01/29 05:01:30;;;;;;;14.60;9.63;;;;;;;;;;5121180;27;20271;-82
2022/01/29 05:03:57;;;;;;;11.77;9.00;;;;;;;;;;5114364;28;20236;-82
2022/01/29 05:06:25;;;;;;;13.10;9.23;;;;;;;;;;5118428;27;20718;-82
2022/01/29 05:08:52;;;;;;;12.27;8.67;;;;;;;;;;5115683;27;20237;-82
2022/01/29 05:11:19;;;;;;;11.77;8.53;;;;;;;;;;5116942;27;20610;-82
2022/01/29 05:13:46;;;;;;;13.97;8.73;;;;;;;;;;5127430;27;20204;-83
2022/01/29 05:16:35;;;;;;;12.07;8.70;;;;;;;;;;5117779;27;20692;-82
2022/01/29 05:27:17;;;;;;;11.63;8.47;;;;;;;;;;5133806;27;20200;-82
2022/01/29 05:29:44;;;;;;;11.67;8.50;;;;;;;;;;5134093;27;20229;-82
2022/01/29 05:32:15;;;;;;;12.87;8.50;;;;;;;;;;5093238;28;20246;-83
2022/01/29 05:34:42;;;;;;;12.63;8.67;;;;;;;;;;5107703;27;20203;-82
2022/01/29 05:37:09;;;;;;;13.47;9.37;;;;;;;;;;5134134;27;20662;-82
2022/01/29 05:39:37;;;;;;;13.77;9.30;;;;;;;;;;5133607;27;20247;-82
2022/01/29 05:42:04;;;;;;;13.57;9.53;;;;;;;;;;5134274;27;20660;-82
2022/01/29 05:44:31;;;;;;;15.87;9.87;;;;;;;;;;5123080;27;20282;-82
2022/01/29 05:46:58;;;;;;;14.37;9.47;;;;;;;;;;5130758;27;20710;-82
2022/01/29 05:49:27;;;;;;;14.57;9.63;;;;;;;;;;5126710;27;20280;-82
2022/01/29 05:51:54;;;;;;;13.43;9.57;;;;;;;;;;5119606;27;20275;-82
2022/01/29 05:54:22;;;;;;;12.73;9.43;;;;;;;;;;5105729;28;20443;-82
2022/01/29 05:56:49;;;;;;;14.43;9.80;;;;;;;;;;5112628;28;20264;-82
2022/01/29 05:59:16;;;;;;;15.37;10.20;;;;;;;;;;5103061;28;20635;-82
2022/01/29 06:01:43;;;;;;;15.50;10.43;;;;;;;;;;5106135;28;20285;-82
2022/01/29 06:04:11;;;;;;;16.37;10.40;;;;;;;;;;5098780;28;20802;-82
2022/01/29 06:06:39;;;;;;;15.07;9.93;;;;;;;;;;5094304;28;20688;-82
2022/01/29 06:09:07;;;;;;;15.17;10.37;;;;;;;;;;5105195;28;20648;-82
2022/01/29 06:11:34;;;;;;;13.93;10.30;;;;;;;;;;5092558;28;20297;-82
2022/01/29 06:14:01;;;;;;;14.63;10.20;;;;;;;;;;5092272;28;20284;-82
2022/01/29 06:16:30;;;;;;;14.07;9.90;;;;;;;;;;5092499;28;20314;-82
2022/01/29 06:18:57;;;;;;;16.73;10.60;;;;;;;;;;5093664;28;20293;-82
2022/01/29 06:21:24;;;;;;;15.60;9.97;;;;;;;;;;5112997;28;20200;-81
2022/01/29 06:23:53;;;;;;;14.40;10.13;;;;;;;;;;5112848;28;20229;-82
2022/01/29 06:26:20;;;;;;;14.37;9.23;;;;;;;;;;5112567;28;20867;-83
2022/01/29 06:28:47;;;;;;;15.73;9.60;;;;;;;;;;5112974;28;20285;-82
2022/01/29 06:31:15;;;;;;;12.67;9.50;;;;;;;;;;5110508;28;20227;-82
2022/01/29 06:33:42;;;;;;;13.37;9.47;;;;;;;;;;5093247;28;20689;-82
2022/01/29 06:36:10;;;;;;;13.83;9.57;;;;;;;;;;5092030;28;20234;-82
2022/01/29 06:38:37;;;;;;;14.63;9.80;;;;;;;;;;5092061;28;20205;-82
2022/01/29 06:41:06;;;;;;;14.90;9.03;;;;;;;;;;5106058;28;20342;-82
2022/01/29 06:43:33;;;;;;;15.10;9.60;;;;;;;;;;5111842;28;20302;-82
2022/01/29 06:46:00;;;;;;;13.23;9.27;;;;;;;;;;5110018;28;20293;-82
2022/01/29 06:48:28;;;;;;;12.70;8.87;;;;;;;;;;5096261;28;20227;-82
2022/01/29 06:50:55;;;;;;;12.43;9.33;;;;;;;;;;5106497;28;20695;-82
2022/01/29 06:53:22;;;;;;;14.27;9.63;;;;;;;;;;5101558;27;20295;-82
2022/01/29 06:55:49;;;;;;;13.67;10.00;;;;;;;;;;5128996;27;20272;-82
2022/01/29 06:58:18;;;;;;;14.40;9.77;;;;;;;;;;5112108;28;20224;-82
2022/01/29 07:00:45;;;;;;;13.93;9.87;;;;;;;;;;5112391;28;20287;-82
2022/01/29 07:03:12;;;;;;;13.77;9.40;;;;;;;;;;5111999;28;20281;-82
2022/01/29 07:05:39;;;;;;;16.33;10.53;;;;;;;;;;5111919;28;20204;-82
2022/01/29 07:08:07;;;;;;;12.97;9.37;;;;;;;;;;5120851;27;20227;-82
2022/01/29 07:10:37;;;;;;;13.70;9.17;;;;;;;;;;5131817;27;20228;-83
2022/01/29 07:13:04;;;;;;;12.53;8.80;;;;;;;;;;5131732;27;20664;-82
2022/01/29 07:15:32;;;;;;;12.10;8.97;;;;;;;;;;5131382;27;20220;-82
2022/01/29 07:18:00;;;;;;;14.37;8.90;;;;;;;;;;5121340;27;20218;-82
2022/01/29 07:20:27;;;;;;;11.30;8.47;;;;;;;;;;5129521;27;20228;-82
2022/01/29 07:22:54;;;;;;;12.17;8.37;;;;;;;;;;5117945;28;20192;-82
2022/01/29 07:25:21;;;;;;;13.13;9.20;;;;;;;;;;5129096;28;20281;-82
2022/01/29 07:27:48;;;;;;;11.13;8.30;;;;;;;;;;5132198;28;20232;-82
2022/01/29 07:30:16;;;;;;;13.30;9.37;;;;;;;;;;5118358;28;20559;-82
2022/01/29 07:32:48;;;;;;;11.47;8.73;;;;;;;;;;5112010;28;20209;-82
2022/01/29 07:35:15;;;;;;;11.60;8.43;;;;;;;;;;5111671;28;20200;-82
2022/01/29 07:37:43;;;;;;;12.80;8.90;;;;;;;;;;5111772;28;20257;-82
2022/01/29 07:40:11;;;;;;;10.93;8.23;;;;;;;;;;5112101;28;20628;-83
2022/01/29 07:42:41;;;;;;;12.60;8.53;;;;;;;;;;5111567;28;20456;-81
2022/01/29 07:45:08;;;;;;;12.53;8.30;;;;;;;;;;5111842;28;20299;-82
2022/01/29 07:47:36;;;;;;;10.90;8.17;;;;;;;;;;5111412;28;20736;-82
2022/01/29 07:50:05;;;;;;;12.60;9.20;;;;;;;;;;5115208;28;20198;-83
2022/01/29 07:52:32;;;;;;;10.53;8.20;;;;;;;;;;5111535;28;20296;-83
2022/01/29 07:54:59;;;;;;;12.13;8.40;;;;;;;;;;5111076;28;20264;-83
2022/01/29 07:57:27;;;;;;;10.90;7.73;;;;;;;;;;5111777;28;20261;-83
2022/01/29 07:59:55;;;;;;;13.27;7.40;;;;;;;;;;5112980;28;20329;-82
2022/01/29 08:02:22;;;;;;;12.00;8.17;;;;;;;;;;5119151;28;20209;-83
2022/01/29 08:04:49;;;;;;;11.40;7.63;;;;;;;;;;5110889;28;20251;-82
2022/01/29 08:07:18;;;;;;;10.73;7.40;;;;;;;;;;5118437;28;20276;-82
2022/01/29 08:09:45;;;;;;;8.93;6.77;;;;;;;;;;5110756;28;20683;-83
2022/01/29 08:12:12;;;;;;;10.00;6.80;;;;;;;;;;5111158;28;20205;-82
2022/01/29 08:14:39;;;;;;;10.80;7.50;;;;;;;;;;5127848;28;20283;-83
2022/01/29 08:17:07;;;;;;;9.87;7.37;;;;;;;;;;5115842;28;20245;-83
2022/01/29 08:19:35;;;;;;;9.53;6.97;;;;;;;;;;5111327;28;20200;-83
2022/01/29 08:22:02;;;;;;;9.57;7.47;;;;;;;;;;5123774;28;20249;-82
2022/01/29 08:24:31;;;;;;;10.77;7.77;;;;;;;;;;5091025;28;20238;-82
2022/01/29 08:26:58;;;;;;;13.03;8.80;;;;;;;;;;5118247;27;20724;-82
2022/01/29 08:29:25;;;;;;;14.17;10.10;;;;;;;;;;5128186;27;20232;-84
2022/01/29 08:31:52;;;;;;;11.43;8.80;;;;;;;;;;5125879;27;20287;-84
2022/01/29 08:34:20;;;;;;;11.93;9.10;;;;;;;;;;5134782;27;20228;-84
2022/01/29 08:36:48;;;;;;;9.77;7.43;;;;;;;;;;5135100;27;20610;-84
2022/01/29 08:39:16;;;;;;;9.40;6.73;;;;;;;;;;5135422;27;20193;-85
2022/01/29 08:41:45;;;;;;;8.73;6.87;;;;;;;;;;5122388;27;20203;-84
2022/01/29 08:44:12;;;;;;;9.93;7.17;;;;;;;;;;5115903;28;20283;-84
2022/01/29 08:46:39;;;;;;;10.27;7.27;;;;;;;;;;5115336;28;20233;-84
2022/01/29 08:49:06;;;;;;;11.07;7.47;;;;;;;;;;5114765;28;20322;-84
2022/01/29 08:51:33;;;;;;;8.73;7.10;;;;;;;;;;5117522;27;20276;-84
2022/01/29 08:54:01;;;;;;;9.30;7.07;;;;;;;;;;5135042;27;20755;-84
2022/01/29 08:56:28;;;;;;;8.30;6.87;;;;;;;;;;5134875;27;20284;-84
2022/01/29 08:58:57;;;;;;;10.37;6.70;;;;;;;;;;5134677;27;20349;-84
2022/01/29 09:01:24;;;;;;;9.80;6.17;;;;;;;;;;5126881;27;20228;-84
2022/01/29 09:03:51;;;;;;;6.63;5.53;;;;;;;;;;5122788;27;20233;-84
2022/01/29 09:06:19;;;;;;;6.40;5.30;;;;;;;;;;5134673;27;20232;-84
2022/01/29 09:08:49;;;;;;;7.77;6.40;;;;;;;;;;5134628;27;20236;-84
2022/01/29 09:11:16;;;;;;;9.70;6.87;;;;;;;;;;5133592;27;20684;-84
2022/01/29 09:13:43;;;;;;;8.53;6.97;;;;;;;;;;5117093;27;20284;-84
2022/01/29 09:16:12;;;;;;;8.67;6.80;;;;;;;;;;5114120;28;20233;-84
2022/01/29 09:18:39;;;;;;;8.17;6.70;;;;;;;;;;5113824;28;20261;-84
2022/01/29 09:21:07;;;;;;;7.60;5.50;;;;;;;;;;5114172;28;20237;-84
2022/01/29 09:23:34;;;;;;;6.97;5.33;;;;;;;;;;5113990;28;20232;-84
2022/01/29 09:26:02;;;;;;;6.67;5.07;;;;;;;;;;5130559;27;20232;-85
2022/01/29 09:28:30;;;;;;;5.80;4.30;;;;;;;;;;5135083;27;20244;-84
2022/01/29 09:30:57;;;;;;;4.03;3.37;;;;;;;;;;5119082;27;20627;-84
2022/01/29 09:33:25;;;;;;;4.40;3.33;;;;;;;;;;5118459;27;20288;-85
2022/01/29 09:35:53;;;;;;;4.37;3.20;;;;;;;;;;5114018;27;20280;-84
2022/01/29 09:38:20;;;;;;;5.37;4.23;;;;;;;;;;5113119;28;20332;-84
2022/01/29 09:40:47;;;;;;;6.47;4.60;;;;;;;;;;5128935;27;20283;-84
2022/01/29 09:43:15;;;;;;;6.77;4.50;;;;;;;;;;5121718;27;20302;-84
2022/01/29 09:45:43;;;;;;;5.53;4.23;;;;;;;;;;5126180;27;20619;-84
2022/01/29 09:48:10;;;;;;;6.17;4.07;;;;;;;;;;5117218;27;20273;-84
2022/01/29 09:50:40;;;;;;;6.23;4.53;;;;;;;;;;5125836;27;20227;-84
2022/01/29 09:53:08;;;;;;;5.67;4.00;;;;;;;;;;5117449;27;20232;-84
2022/01/29 09:55:38;;;;;;;4.07;3.63;;;;;;;;;;5135637;27;20252;-84
2022/01/29 09:58:05;;;;;;;4.87;3.60;;;;;;;;;;5132270;27;20227;-85
2022/01/29 10:00:33;;;;;;;6.33;3.83;;;;;;;;;;5136197;27;20631;-85
2022/01/29 10:03:15;;;;;;;4.27;3.50;;;;;;;;;;5125675;27;20249;-85
2022/01/29 10:05:45;;;;;;;4.17;3.17;;;;;;;;;;5116698;27;20213;-82
2022/01/29 10:08:13;;;;;;;4.20;2.83;;;;;;;;;;5131875;27;20204;-82
2022/01/29 10:10:40;;;;;;;3.50;2.90;;;;;;;;;;5119741;27;20292;-82
2022/01/29 10:13:23;;;;;;;4.50;3.30;;;;;;;;;;5133077;27;20220;-82
2022/01/29 10:15:51;;;;;;;4.13;3.00;;;;;;;;;;5117800;27;20284;-82
2022/01/29 10:18:22;;;;;;;3.83;2.40;;;;;;;;;;5116783;27;20224;-82
2022/01/29 10:20:50;;;;;;;4.83;3.10;;;;;;;;;;5115724;27;20201;-82
2022/01/29 10:23:18;;;;;;;4.27;3.10;;;;;;;;;;5126200;27;20285;-82
2022/01/29 10:25:51;;;;;;;4.70;3.30;;;;;;;;;;5122668;27;20280;-82
2022/01/29 10:28:19;;;;;;;3.10;2.60;;;;;;;;;;5112664;27;20221;-82
2022/01/29 10:31:10;;;;;;;3.90;2.80;;;;;;;;;;5116693;27;20284;-82
2022/01/29 10:33:39;;;;;;;4.70;3.10;;;;;;;;;;5102425;27;20224;-82
2022/01/29 10:36:08;;;;;;;3.90;3.00;;;;;;;;;;5112672;27;20277;-82
2022/01/29 10:38:49;;;;;;;3.83;3.30;;;;;;;;;;5128823;27;20406;-82
2022/01/29 10:41:19;;;;;;;4.70;3.90;;;;;;;;;;5101600;27;20277;-82
2022/01/29 10:43:57;;;;;;;4.13;3.50;;;;;;;;;;5116555;27;20213;-82
2022/01/29 10:46:28;;;;;;;3.13;2.60;;;;;;;;;;5125651;27;20239;-82
2022/01/29 10:48:55;;;;;;;3.60;3.07;;;;;;;;;;5118341;27;20280;-82
2022/01/29 10:51:24;;;;;;;3.73;3.20;;;;;;;;;;5124723;27;20280;-82
2022/01/29 10:53:53;;;;;;;4.40;4.00;;;;;;;;;;5115492;27;20279;-82
2022/01/29 10:56:20;;;;;;;5.70;4.27;;;;;;;;;;5111174;28;20281;-82
2022/01/29 10:58:50;;;;;;;4.10;3.70;;;;;;;;;;5101400;28;20297;-82
2022/01/29 11:01:18;;;;;;;4.33;3.60;;;;;;;;;;5101964;28;20220;-82
2022/01/29 11:03:46;;;;;;;5.53;3.83;;;;;;;;;;5096979;28;20329;-81
2022/01/29 11:06:16;;;;;;;4.00;3.17;;;;;;;;;;5099654;28;20195;-82
2022/01/29 11:08:45;;;;;;;3.47;2.10;;;;;;;;;;5094161;28;20202;-82
2022/01/29 11:11:13;;;;;;;2.23;1.63;;;;;;;;;;5106806;28;20217;-82
2022/01/29 11:13:41;;;;;;;1.90;1.70;;;;;;;;;;5102742;28;20288;-81
2022/01/29 11:16:08;;;;;;;2.40;1.80;;;;;;;;;;5081164;28;20221;-82
2022/01/29 11:18:36;;;;;;;2.77;1.60;;;;;;;;;;5097427;28;20253;-82
2022/01/29 11:21:04;;;;;;;2.20;1.90;;;;;;;;;;5092216;28;20404;-83
2022/01/29 11:23:32;;;;;;;2.43;1.87;;;;;;;;;;5090879;28;20190;-83
2022/01/29 11:26:01;;;;;;;2.47;2.00;;;;;;;;;;5098162;28;20278;-82
2022/01/29 11:28:29;;;;;;;3.57;2.00;;;;;;;;;;5085146;28;20191;-82
2022/01/29 11:31:15;;;;;;;3.20;2.53;;;;;;;;;;5100823;28;20234;-81
2022/01/29 11:33:57;;;;;;;2.40;2.07;;;;;;;;;;5098162;28;20226;-82
2022/01/29 11:36:24;;;;;;;1.70;1.50;;;;;;;;;;5088252;28;20294;-82
2022/01/29 11:38:52;;;;;;;2.33;1.60;;;;;;;;;;5091651;28;20305;-81
2022/01/29 11:41:20;;;;;;;1.30;1.20;;;;;;;;;;5095486;28;20197;-82
2022/01/29 11:43:48;;;;;;;2.17;1.10;;;;;;;;;;5090468;28;20246;-85
2022/01/29 11:46:31;;;;;;;1.57;1.23;;;;;;;;;;5090907;28;20224;-83
2022/01/29 11:49:00;;;;;;;2.23;1.30;;;;;;;;;;5077994;28;20249;-82
2022/01/29 11:51:44;;;;;;;3.50;1.20;;;;;;;;;;5093819;28;20546;-82
2022/01/29 11:54:12;;;;;;;2.40;1.40;;;;;;;;;;5099607;28;20252;-83
2022/01/29 11:56:41;;;;;;;2.63;1.60;;;;;;;;;;5107284;28;20245;-83
2022/01/29 11:59:24;;;;;;;3.00;2.70;;;;;;;;;;5100840;28;20715;-82
2022/01/29 12:01:52;;;;;;;5.23;3.20;;;;;;;;;;5104464;28;20281;-83
2022/01/29 12:04:20;;;;;;;5.07;3.37;;;;;;;;;;5107227;27;20664;-84
2022/01/29 12:07:08;;;;;;;3.77;2.60;;;;;;;;;;5114082;28;20215;-83
2022/01/29 12:09:43;;;;;;;2.60;2.20;;;;;;;;;;5109005;27;20206;-81
2022/01/29 12:12:22;;;;;;;3.53;2.30;;;;;;;;;;5114470;28;20284;-81
2022/01/29 12:14:50;;;;;;;2.30;1.97;;;;;;;;;;5113662;27;20193;-81
2022/01/29 12:17:41;;;;;;;2.57;1.80;;;;;;;;;;5114368;28;20280;-80
2022/01/29 12:20:09;;;;;;;2.00;1.80;;;;;;;;;;5111654;27;20209;-82
2022/01/29 12:22:37;;;;;;;3.13;1.80;;;;;;;;;;5109642;27;20255;-83
2022/01/29 12:27:53;;;;;;;1.60;1.50;;;;;;;;;;5103684;28;20566;-83
2022/01/29 12:30:21;;;;;;;3.90;1.83;;;;;;;;;;5106879;28;20195;-84
2022/01/29 12:32:59;;;;;;;2.37;1.60;;;;;;;;;;5114068;28;20232;-83
2022/01/29 12:35:33;;;;;;;2.83;1.87;;;;;;;;;;5113278;27;20280;-81
2022/01/29 12:38:00;;;;;;;3.00;1.90;;;;;;;;;;5108664;27;20280;-83
2022/01/29 12:40:27;;;;;;;2.20;1.90;;;;;;;;;;5106515;27;20316;-84
2022/01/29 12:42:58;;;;;;;2.50;2.00;;;;;;;;;;5114263;27;20217;-86
2022/01/29 12:45:26;;;;;;;2.30;2.10;;;;;;;;;;5095604;28;20201;-84
2022/01/29 12:48:06;;;;;;;2.17;1.93;;;;;;;;;;5110206;27;20216;-83
2022/01/29 12:50:34;;;;;;;2.00;1.80;;;;;;;;;;5109893;27;20596;-83
2022/01/29 12:53:08;;;;;;;2.07;1.87;;;;;;;;;;5110267;28;20201;-82
2022/01/29 12:55:35;;;;;;;2.87;1.50;;;;;;;;;;5106083;27;20320;-82
2022/01/29 12:58:04;;;;;;;1.47;1.20;;;;;;;;;;5112635;28;20229;-82
2022/01/29 13:00:32;;;;;;;1.93;1.60;;;;;;;;;;5110933;27;20719;-82
2022/01/29 13:03:06;;;;;;;1.87;1.20;;;;;;;;;;5106074;28;20317;-82
2022/01/29 13:05:39;;;;;;;2.30;1.50;;;;;;;;;;5113112;27;20203;-83
2022/01/29 13:08:07;;;;;;;2.57;1.57;;;;;;;;;;5110499;28;20735;-81
2022/01/29 13:10:35;;;;;;;2.00;1.60;;;;;;;;;;5116305;27;20244;-83
2022/01/29 13:13:04;;;;;;;2.63;2.20;;;;;;;;;;5116133;27;20194;-82
2022/01/29 13:15:38;;;;;;;2.47;2.00;;;;;;;;;;5114077;28;20230;-83
2022/01/29 13:18:07;;;;;;;3.07;2.00;;;;;;;;;;5107135;27;20293;-86
2022/01/29 13:20:34;;;;;;;3.23;1.93;;;;;;;;;;5113554;28;20302;-87
2022/01/29 13:23:01;;;;;;;2.50;2.10;;;;;;;;;;5113795;28;20225;-86
2022/01/29 13:25:30;;;;;;;3.10;2.23;;;;;;;;;;5113541;28;20217;-86
2022/01/29 13:28:13;;;;;;;2.80;2.17;;;;;;;;;;5114168;28;20193;-87
2022/01/29 13:30:41;;;;;;;4.30;2.60;;;;;;;;;;5109859;28;20218;-87
2022/01/29 13:33:10;;;;;;;3.13;2.33;;;;;;;;;;5113889;28;20225;-88
2022/01/29 13:35:48;;;;;;;2.10;1.90;;;;;;;;;;5113310;28;20194;-87
2022/01/29 13:38:17;;;;;;;4.60;2.67;;;;;;;;;;5113683;28;20254;-87
2022/01/29 13:40:46;;;;;;;4.30;2.63;;;;;;;;;;5106527;28;20201;-87
2022/01/29 13:43:17;;;;;;;3.70;2.60;;;;;;;;;;5114334;28;20245;-87
2022/01/29 13:45:51;;;;;;;2.40;2.20;;;;;;;;;;5106190;28;20693;-87
2022/01/29 13:48:18;;;;;;;3.93;2.60;;;;;;;;;;5113202;28;20229;-86
2022/01/29 13:50:46;;;;;;;3.67;2.40;;;;;;;;;;5096978;28;20617;-87
2022/01/29 13:53:14;;;;;;;3.10;2.63;;;;;;;;;;5106800;28;20617;-87
2022/01/29 13:55:42;;;;;;;2.90;2.60;;;;;;;;;;5111444;28;20198;-86
2022/01/29 13:58:10;;;;;;;2.80;2.60;;;;;;;;;;5101015;28;20236;-86
2022/01/29 14:00:56;;;;;;;2.90;2.53;;;;;;;;;;5112582;28;20300;-87
2022/01/29 14:03:38;;;;;;;3.83;2.80;;;;;;;;;;5105449;28;20225;-87
2022/01/29 14:06:19;;;;;;;3.93;2.57;;;;;;;;;;5078487;28;20209;-87
2022/01/29 14:08:47;;;;;;;2.90;2.50;;;;;;;;;;5112519;28;20212;-87
2022/01/29 14:11:16;;;;;;;3.07;2.57;;;;;;;;;;5098950;28;20703;-87
2022/01/29 14:13:43;;;;;;;4.50;2.70;;;;;;;;;;5096622;28;20210;-87
2022/01/29 14:16:12;;;;;;;3.30;3.00;;;;;;;;;;5107320;28;20601;-87
2022/01/29 14:18:40;;;;;;;4.53;2.93;;;;;;;;;;5096624;28;20223;-87
2022/01/29 14:21:07;;;;;;;3.43;2.60;;;;;;;;;;5112486;28;20648;-86
2022/01/29 14:23:34;;;;;;;3.87;3.13;;;;;;;;;;5104576;28;20199;-87
2022/01/29 14:26:01;;;;;;;3.30;3.00;;;;;;;;;;5104704;28;20198;-87
2022/01/29 14:28:29;;;;;;;4.60;3.43;;;;;;;;;;5112814;28;20229;-87
2022/01/29 14:30:56;;;;;;;4.87;3.13;;;;;;;;;;5098160;28;20190;-86
2022/01/29 14:33:24;;;;;;;3.47;2.90;;;;;;;;;;5112830;28;20225;-87
2022/01/29 14:35:53;;;;;;;3.40;2.83;;;;;;;;;;5112333;28;20644;-87
2022/01/29 14:38:20;;;;;;;3.30;3.00;;;;;;;;;;5112461;28;20193;-86
2022/01/29 14:40:47;;;;;;;6.27;3.60;;;;;;;;;;5096653;28;20305;-86
2022/01/29 14:43:15;;;;;;;4.60;4.20;;;;;;;;;;5112433;28;20785;-86
2022/01/29 14:45:42;;;;;;;4.83;4.30;;;;;;;;;;5111874;28;20614;-86
2022/01/29 14:48:09;;;;;;;4.37;3.80;;;;;;;;;;5096881;28;20536;-86
2022/01/29 14:50:38;;;;;;;5.00;4.33;;;;;;;;;;5092860;28;20203;-87
2022/01/29 14:53:05;;;;;;;4.37;3.97;;;;;;;;;;5112660;28;20210;-86